createdAt,value
2023-02-09T00:00:06.570Z,490.00
2023-02-09T00:01:06.569Z,490.00
2023-02-09T00:02:06.654Z,490.00
2023-02-09T00:03:06.611Z,490.00
2023-02-09T00:04:06.614Z,490.00
2023-02-09T00:05:06.638Z,490.00
2023-02-09T00:06:06.698Z,489.00
2023-02-09T00:07:06.691Z,489.00
2023-02-09T00:08:06.710Z,491.00
2023-02-09T00:09:06.752Z,489.00
2023-02-09T00:10:06.772Z,488.00
2023-02-09T00:11:06.787Z,485.00
2023-02-09T00:12:06.875Z,485.00
2023-02-09T00:13:06.837Z,487.00
2023-02-09T00:14:06.888Z,487.00
2023-02-09T00:15:06.869Z,488.00
2023-02-09T00:16:06.974Z,490.00
2023-02-09T00:17:06.941Z,490.00
2023-02-09T00:18:06.923Z,492.00
2023-02-09T00:19:06.991Z,493.00
2023-02-09T00:20:07.045Z,491.00
2023-02-09T00:21:07.036Z,491.00
2023-02-09T00:22:07.039Z,493.00
2023-02-09T00:23:07.079Z,492.00
2023-02-09T00:24:07.110Z,493.00
2023-02-09T00:25:07.111Z,494.00
2023-02-09T00:26:07.148Z,491.00
2023-02-09T00:27:07.161Z,489.00
2023-02-09T00:28:07.247Z,489.00
2023-02-09T00:29:07.252Z,490.00
2023-02-09T00:30:07.219Z,491.00
2023-02-09T00:31:07.313Z,491.00
2023-02-09T00:32:07.305Z,488.00
2023-02-09T00:33:07.354Z,488.00
2023-02-09T00:34:07.356Z,490.00
2023-02-09T00:35:07.384Z,490.00
2023-02-09T00:36:07.400Z,490.00
2023-02-09T00:37:07.446Z,489.00
2023-02-09T00:38:07.440Z,490.00
2023-02-09T00:39:07.483Z,490.00
2023-02-09T00:40:07.478Z,491.00
2023-02-09T00:41:07.529Z,491.00
2023-02-09T00:42:07.530Z,493.00
2023-02-09T00:43:07.573Z,491.00
2023-02-09T00:44:07.621Z,489.00
2023-02-09T00:45:07.610Z,494.00
2023-02-09T00:46:07.696Z,497.00
2023-02-09T00:47:07.667Z,496.00
2023-02-09T00:48:07.720Z,494.00
2023-02-09T00:49:07.720Z,495.00
2023-02-09T00:50:07.754Z,494.00
2023-02-09T00:51:07.756Z,493.00
2023-02-09T00:52:09.823Z,490.00
2023-02-09T00:53:07.792Z,490.00
2023-02-09T00:54:07.800Z,489.00
2023-02-09T00:55:07.820Z,487.00
2023-02-09T00:56:07.853Z,485.00
2023-02-09T00:57:07.864Z,483.00
2023-02-09T00:58:07.879Z,481.00
2023-02-09T00:59:07.925Z,480.00
2023-02-09T01:00:07.925Z,479.00
2023-02-09T01:01:07.984Z,478.00
2023-02-09T01:02:07.974Z,479.00
2023-02-09T01:03:07.982Z,480.00
2023-02-09T01:04:07.988Z,478.00
2023-02-09T01:05:08.044Z,478.00
2023-02-09T01:06:08.028Z,477.00
2023-02-09T01:07:08.129Z,478.00
2023-02-09T01:08:08.136Z,478.00
2023-02-09T01:09:08.168Z,477.00
2023-02-09T01:10:08.162Z,477.00
2023-02-09T01:11:08.214Z,480.00
2023-02-09T01:12:08.334Z,478.00
2023-02-09T01:13:08.373Z,478.00
2023-02-09T01:14:08.368Z,480.00
2023-02-09T01:15:08.373Z,482.00
2023-02-09T01:16:08.420Z,480.00
2023-02-09T01:17:08.589Z,480.00
2023-02-09T01:18:08.635Z,481.00
2023-02-09T01:19:08.522Z,481.00
2023-02-09T01:20:08.565Z,482.00
2023-02-09T01:21:08.605Z,484.00
2023-02-09T01:36:09.223Z,481.00
2023-02-09T01:37:09.247Z,482.00
2023-02-09T01:38:09.296Z,484.00
2023-02-09T01:39:09.314Z,483.00
2023-02-09T01:40:09.347Z,482.00
2023-02-09T01:41:09.363Z,484.00
2023-02-09T01:42:09.419Z,485.00
2023-02-09T01:43:09.434Z,485.00
2023-02-09T01:44:09.497Z,485.00
2023-02-09T01:45:09.474Z,486.00
2023-02-09T01:46:09.616Z,486.00
2023-02-09T01:47:09.544Z,486.00
2023-02-09T01:48:09.620Z,484.00
2023-02-09T01:49:09.670Z,483.00
2023-02-09T01:50:09.744Z,483.00
2023-02-09T01:51:09.770Z,483.00
2023-02-09T01:52:09.840Z,479.00
2023-02-09T01:53:09.915Z,478.00
2023-02-09T01:54:09.944Z,476.00
2023-02-09T01:55:09.993Z,475.00
2023-02-09T01:56:10.040Z,474.00
2023-02-09T01:59:10.194Z,480.00
2023-02-09T02:00:10.216Z,479.00
2023-02-09T02:01:10.257Z,476.00
2023-02-09T02:02:10.332Z,474.00
2023-02-09T02:03:10.333Z,472.00
2023-02-09T02:04:10.359Z,470.00
2023-02-09T02:05:10.402Z,470.00
2023-02-09T02:06:10.467Z,469.00
2023-02-09T02:07:10.502Z,470.00
2023-02-09T02:08:10.584Z,468.00
2023-02-09T02:09:10.628Z,468.00
2023-02-09T02:10:10.638Z,470.00
2023-02-09T02:11:10.691Z,470.00
2023-02-09T02:12:10.805Z,469.00
2023-02-09T02:13:10.869Z,465.00
2023-02-09T02:14:10.975Z,467.00
2023-02-09T02:15:11.034Z,467.00
2023-02-09T02:16:11.193Z,467.00
2023-02-09T02:17:11.201Z,465.00
2023-02-09T02:18:11.252Z,465.00
2023-02-09T02:19:11.318Z,464.00
2023-02-09T02:20:11.435Z,462.00
2023-02-09T02:21:11.511Z,460.00
2023-02-09T02:22:11.593Z,458.00
2023-02-09T02:23:11.697Z,460.00
2023-02-09T02:48:13.276Z,473.00
2023-02-09T02:49:15.199Z,474.00
2023-02-09T02:50:13.361Z,471.00
2023-02-09T02:51:13.417Z,471.00
2023-02-09T02:52:13.442Z,472.00
2023-02-09T02:53:13.523Z,472.00
2023-02-09T02:54:13.687Z,472.00
2023-02-09T02:55:13.619Z,472.00
2023-02-09T02:56:13.637Z,474.00
2023-02-09T02:57:13.710Z,474.00
2023-02-09T02:58:13.760Z,472.00
2023-02-09T02:59:13.789Z,470.00
2023-02-09T03:00:13.875Z,470.00
2023-02-09T03:01:13.912Z,470.00
2023-02-09T03:02:13.929Z,468.00
2023-02-09T03:03:14.035Z,468.00
2023-02-09T03:04:14.060Z,469.00
2023-02-09T03:05:14.171Z,471.00
2023-02-09T03:06:14.185Z,471.00
2023-02-09T03:07:14.233Z,471.00
2023-02-09T03:08:14.272Z,470.00
2023-02-09T03:09:14.354Z,470.00
2023-02-09T03:10:14.421Z,470.00
2023-02-09T03:11:14.504Z,470.00
2023-02-09T03:12:14.543Z,468.00
2023-02-09T03:13:14.932Z,468.00
2023-02-09T03:14:14.639Z,468.00
2023-02-09T03:15:14.758Z,472.00
2023-02-09T03:16:14.839Z,472.00
2023-02-09T03:17:14.850Z,473.00
2023-02-09T03:18:14.890Z,471.00
2023-02-09T03:19:15.001Z,470.00
2023-02-09T03:20:15.092Z,471.00
2023-02-09T03:21:15.143Z,476.00
2023-02-09T03:22:15.232Z,475.00
2023-02-09T03:32:16.094Z,473.00
2023-02-09T03:33:16.207Z,474.00
2023-02-09T03:34:16.301Z,474.00
2023-02-09T03:35:16.381Z,474.00
2023-02-09T03:36:16.427Z,477.00
2023-02-09T03:37:16.561Z,476.00
2023-02-09T03:38:16.627Z,474.00
2023-02-09T03:39:16.677Z,474.00
2023-02-09T03:40:16.788Z,473.00
2023-02-09T03:41:16.859Z,474.00
2023-02-09T03:42:16.929Z,474.00
2023-02-09T03:43:17.022Z,473.00
2023-02-09T03:44:17.133Z,473.00
2023-02-09T03:45:17.242Z,477.00
2023-02-09T03:46:17.327Z,478.00
2023-02-09T03:47:17.370Z,479.00
2023-02-09T03:48:17.506Z,483.00
2023-02-09T03:49:17.566Z,482.00
2023-02-09T03:50:17.670Z,481.00
2023-02-09T03:51:17.732Z,482.00
2023-02-09T03:52:17.819Z,481.00
2023-02-09T03:53:17.944Z,482.00
2023-02-09T03:54:18.000Z,481.00
2023-02-09T03:55:18.092Z,480.00
2023-02-09T03:56:18.149Z,479.00
2023-02-09T03:57:18.239Z,479.00
2023-02-09T03:58:18.342Z,480.00
2023-02-09T03:59:18.397Z,480.00
2023-02-09T04:00:18.498Z,481.00
2023-02-09T04:01:18.625Z,480.00
2023-02-09T07:12:26.123Z,972.00
2023-02-09T07:13:26.183Z,974.00
2023-02-09T07:14:26.248Z,976.00
2023-02-09T07:15:26.272Z,975.00
2023-02-09T07:16:26.451Z,973.00
2023-02-09T07:17:26.472Z,975.00
2023-02-09T07:18:26.460Z,979.00
2023-02-09T07:19:26.507Z,985.00
2023-02-09T07:20:26.564Z,989.00
2023-02-09T07:21:26.628Z,1001.00
2023-02-09T07:22:26.679Z,1017.00
2023-02-09T07:23:26.746Z,1030.00
2023-02-09T07:24:27.042Z,1034.00
2023-02-09T07:25:27.422Z,1034.00
2023-02-09T07:26:26.956Z,1033.00
2023-02-09T07:27:27.020Z,1032.00
2023-02-09T07:28:27.078Z,1026.00
2023-02-09T07:29:27.104Z,1030.00
2023-02-09T07:30:27.156Z,1037.00
2023-02-09T07:31:27.417Z,1042.00
2023-02-09T07:32:27.267Z,1044.00
2023-02-09T07:33:27.345Z,1042.00
2023-02-09T07:34:27.414Z,1041.00
2023-02-09T07:35:27.490Z,1041.00
2023-02-09T07:36:27.534Z,838.00
2023-02-09T07:37:27.604Z,894.00
2023-02-09T07:38:27.634Z,788.00
2023-02-09T07:39:28.019Z,803.00
2023-02-09T07:40:27.776Z,896.00
2023-02-09T07:41:27.794Z,940.00
2023-02-09T07:42:27.862Z,966.00
2023-02-09T07:43:27.910Z,967.00
2023-02-09T07:44:27.958Z,981.00
2023-02-09T07:45:27.994Z,993.00
2023-02-09T07:46:28.047Z,1010.00
2023-02-09T07:47:28.141Z,1017.00
2023-02-09T07:48:28.194Z,1032.00
2023-02-09T07:49:28.215Z,1051.00
2023-02-09T07:50:28.234Z,1064.00
2023-02-09T07:51:28.278Z,1071.00
2023-02-09T07:52:28.326Z,1077.00
2023-02-09T07:53:28.373Z,1083.00
2023-02-09T07:54:28.434Z,1085.00
2023-02-09T07:55:28.457Z,1089.00
2023-02-09T07:56:28.516Z,1092.00
2023-02-09T07:57:28.531Z,1104.00
2023-02-09T07:58:28.631Z,1146.00
2023-02-09T07:59:29.060Z,1169.00
2023-02-09T08:00:28.625Z,1174.00
2023-02-09T08:01:28.701Z,1168.00
2023-02-09T08:02:28.701Z,1171.00
2023-02-09T08:03:28.724Z,1177.00
2023-02-09T08:04:28.733Z,1174.00
2023-02-09T08:05:28.806Z,1167.00
2023-02-09T08:06:40.938Z,1172.00
2023-02-09T08:07:29.803Z,1178.00
2023-02-09T08:08:28.779Z,1188.00
2023-02-09T08:09:28.777Z,1193.00
2023-02-09T08:10:29.047Z,1203.00
2023-02-09T08:11:28.808Z,1212.00
2023-02-09T08:12:28.875Z,1219.00
2023-02-09T08:13:28.832Z,1230.00
2023-02-09T08:14:28.788Z,1236.00
2023-02-09T08:15:28.792Z,1239.00
2023-02-09T08:16:28.836Z,1243.00
2023-02-09T08:17:28.800Z,1266.00
2023-02-09T08:18:28.828Z,1287.00
2023-02-09T08:19:28.804Z,1291.00
2023-02-09T08:20:28.832Z,1292.00
2023-02-09T08:21:28.795Z,1302.00
2023-02-09T08:22:28.786Z,1309.00
2023-02-09T08:23:28.784Z,1312.00
2023-02-09T08:24:28.812Z,1310.00
2023-02-09T08:25:28.800Z,1316.00
2023-02-09T08:26:28.803Z,1320.00
2023-02-09T08:27:28.788Z,1315.00
2023-02-09T08:28:42.764Z,1313.00
2023-02-09T08:29:29.814Z,1309.00
2023-02-09T08:30:28.789Z,1304.00
2023-02-09T08:31:28.928Z,1188.00
2023-02-09T08:32:28.759Z,1161.00
2023-02-09T08:33:28.817Z,954.00
2023-02-09T08:34:28.777Z,975.00
2023-02-09T08:35:30.636Z,1071.00
2023-02-09T08:36:28.782Z,1229.00
2023-02-09T08:37:28.804Z,1207.00
2023-02-09T08:38:28.787Z,1044.00
2023-02-09T08:39:28.828Z,1163.00
2023-02-09T08:40:28.865Z,1143.00
2023-02-09T08:41:28.831Z,1208.00
2023-02-09T08:42:28.854Z,1197.00
2023-02-09T08:43:28.877Z,1337.00
2023-02-09T08:53:28.842Z,1430.00
2023-02-09T08:55:28.978Z,1408.00
2023-02-09T08:58:29.124Z,1373.00
2023-02-09T08:59:29.143Z,1375.00
2023-02-09T09:00:29.248Z,1366.00
2023-02-09T09:01:29.333Z,1364.00
2023-02-09T09:02:29.320Z,1370.00
2023-02-09T09:03:29.492Z,1376.00
2023-02-09T09:04:29.484Z,1377.00
2023-02-09T09:05:31.994Z,1383.00
2023-02-09T09:06:29.680Z,1387.00
2023-02-09T09:07:29.738Z,1397.00
2023-02-09T09:09:29.824Z,1430.00
2023-02-09T09:10:29.937Z,1441.00
2023-02-09T09:11:29.934Z,1464.00
2023-02-09T09:12:30.023Z,1473.00
2023-02-09T09:13:30.053Z,1465.00
2023-02-09T09:14:30.110Z,1473.00
2023-02-09T09:15:30.245Z,1474.00
2023-02-09T09:16:30.254Z,1477.00
2023-02-09T09:17:30.299Z,1481.00
2023-02-09T09:18:30.303Z,1485.00
2023-02-09T09:19:30.368Z,1482.00
2023-02-09T09:20:30.629Z,1106.00
2023-02-09T09:21:30.482Z,910.00
2023-02-09T09:22:30.544Z,894.00
2023-02-09T09:23:30.524Z,874.00
2023-02-09T09:24:30.563Z,869.00
2023-02-09T09:25:30.659Z,921.00
2023-02-09T09:26:30.725Z,1045.00
2023-02-09T09:27:30.749Z,1073.00
2023-02-09T09:28:30.823Z,1111.00
2023-02-09T09:29:30.809Z,1126.00
2023-02-09T09:30:31.095Z,1197.00
2023-02-09T09:31:31.055Z,1098.00
2023-02-09T09:32:31.013Z,898.00
2023-02-09T09:33:30.916Z,799.00
2023-02-09T09:34:30.926Z,1110.00
2023-02-09T09:35:31.102Z,1150.00
2023-02-09T09:36:30.994Z,1150.00
2023-02-09T09:37:31.126Z,1146.00
2023-02-09T09:38:31.038Z,1144.00
2023-02-09T09:39:31.110Z,1147.00
2023-02-09T09:40:31.178Z,1150.00
2023-02-09T09:41:31.164Z,1145.00
2023-02-09T09:42:31.243Z,1142.00
2023-02-09T09:43:31.343Z,1145.00
2023-02-09T09:44:31.398Z,1149.00
2023-02-09T09:45:31.606Z,1146.00
2023-02-09T09:46:31.550Z,1153.00
2023-02-09T09:47:31.588Z,1166.00
2023-02-09T09:48:31.616Z,1178.00
2023-02-09T09:49:31.737Z,1184.00
2023-02-09T09:50:31.754Z,1190.00
2023-02-09T09:51:31.811Z,1234.00
2023-02-09T09:52:31.864Z,1108.00
2023-02-09T09:53:31.920Z,1040.00
2023-02-09T09:54:31.963Z,1224.00
2023-02-09T09:55:32.026Z,1238.00
2023-02-09T09:56:32.099Z,1219.00
2023-02-09T09:57:32.152Z,1213.00
2023-02-09T09:58:32.202Z,1210.00
2023-02-09T09:59:32.236Z,1214.00
2023-02-09T10:00:32.301Z,1216.00
2023-02-09T10:01:32.401Z,1216.00
2023-02-09T10:02:32.448Z,1216.00
2023-02-09T10:03:32.468Z,1219.00
2023-02-09T10:04:32.667Z,1215.00
2023-02-09T10:05:32.584Z,838.00
2023-02-09T10:06:34.631Z,824.00
2023-02-09T10:07:32.738Z,1014.00
2023-02-09T10:08:32.721Z,1216.00
2023-02-09T10:09:32.826Z,1175.00
2023-02-09T10:10:32.861Z,1101.00
2023-02-09T10:11:32.873Z,1105.00
2023-02-09T10:12:32.883Z,1098.00
2023-02-09T10:13:32.887Z,1058.00
2023-02-09T10:14:32.969Z,1046.00
2023-02-09T10:15:32.906Z,1043.00
2023-02-09T10:16:32.977Z,1052.00
2023-02-09T10:17:32.873Z,1089.00
2023-02-09T10:18:32.865Z,1104.00
2023-02-09T10:19:32.937Z,1099.00
2023-02-09T10:20:32.951Z,1098.00
2023-02-09T10:21:32.974Z,1091.00
2023-02-09T10:22:33.051Z,1099.00
2023-02-09T10:23:33.097Z,1104.00
2023-02-09T10:24:33.147Z,1096.00
2023-02-09T10:25:33.201Z,1089.00
2023-02-09T10:26:33.220Z,1010.00
2023-02-09T10:27:33.287Z,1094.00
2023-02-09T10:28:33.369Z,1119.00
2023-02-09T10:29:33.344Z,1133.00
2023-02-09T10:30:33.434Z,1141.00
2023-02-09T10:31:33.556Z,1140.00
2023-02-09T10:32:33.489Z,1143.00
2023-02-09T10:33:33.543Z,1146.00
2023-02-09T10:34:33.562Z,1147.00
2023-02-09T10:35:34.166Z,1151.00
2023-02-09T10:36:33.717Z,1150.00
2023-02-09T10:37:33.699Z,1150.00
2023-02-09T10:38:33.803Z,1162.00
2023-02-09T10:39:33.802Z,1175.00
2023-02-09T10:40:34.116Z,1179.00
2023-02-09T10:41:33.828Z,871.00
2023-02-09T10:42:33.895Z,855.00
2023-02-09T10:43:33.980Z,912.00
2023-02-09T10:44:33.909Z,922.00
2023-02-09T10:45:33.937Z,916.00
2023-02-09T10:46:34.006Z,797.00
2023-02-09T10:48:34.105Z,1156.00
2023-02-09T11:31:36.214Z,1357.00
2023-02-09T11:35:36.217Z,944.00
2023-02-09T11:39:38.121Z,954.00
2023-02-09T11:40:36.104Z,918.00
2023-02-09T11:41:36.169Z,936.00
2023-02-09T11:42:36.253Z,1074.00
2023-02-09T11:43:36.284Z,1189.00
2023-02-09T11:44:36.373Z,1183.00
2023-02-09T11:45:36.571Z,1143.00
2023-02-09T11:46:36.696Z,1105.00
2023-02-09T11:47:36.495Z,1096.00
2023-02-09T11:48:36.524Z,1093.00
2023-02-09T11:49:36.588Z,1093.00
2023-02-09T11:50:36.664Z,1089.00
2023-02-09T11:51:37.177Z,1083.00
2023-02-09T11:52:36.719Z,1080.00
2023-02-09T11:53:36.782Z,1079.00
2023-02-09T11:54:36.850Z,1076.00
2023-02-09T11:55:36.869Z,1070.00
2023-02-09T11:56:37.169Z,1067.00
2023-02-09T11:57:36.964Z,1068.00
2023-02-09T11:58:36.994Z,1068.00
2023-02-09T11:59:37.031Z,1066.00
2023-02-09T12:00:47.944Z,1068.00
2023-02-09T12:01:38.082Z,1072.00
2023-02-09T12:02:37.084Z,1077.00
2023-02-09T12:03:37.046Z,1078.00
2023-02-09T12:04:37.043Z,1081.00
2023-02-09T12:05:37.020Z,1081.00
2023-02-09T12:06:37.092Z,1081.00
2023-02-09T12:07:37.018Z,1082.00
2023-02-09T12:08:37.044Z,1088.00
2023-02-09T12:09:37.026Z,1192.00
2023-02-09T12:10:37.016Z,1177.00
2023-02-09T12:11:37.166Z,798.00
2023-02-09T12:12:37.085Z,694.00
2023-02-09T12:13:37.202Z,657.00
2023-02-09T12:14:37.124Z,632.00
2023-02-09T12:15:37.173Z,632.00
2023-02-09T12:16:37.322Z,622.00
2023-02-09T12:17:37.309Z,591.00
2023-02-09T12:18:37.433Z,587.00
2023-02-09T12:19:37.442Z,587.00
2023-02-09T12:20:37.477Z,596.00
2023-02-09T12:21:37.698Z,600.00
2023-02-09T12:22:37.563Z,590.00
2023-02-09T12:23:37.611Z,580.00
2023-02-09T12:24:37.619Z,589.00
2023-02-09T12:25:37.688Z,589.00
2023-02-09T12:26:37.735Z,622.00
2023-02-09T12:27:37.759Z,675.00
2023-02-09T12:28:37.820Z,684.00
2023-02-09T12:29:37.859Z,706.00
2023-02-09T12:30:37.935Z,719.00
2023-02-09T12:31:38.320Z,717.00
2023-02-09T12:32:38.051Z,717.00
2023-02-09T12:33:38.133Z,712.00
2023-02-09T12:34:38.181Z,710.00
2023-02-09T12:35:38.275Z,705.00
2023-02-09T12:36:38.639Z,700.00
2023-02-09T12:37:38.367Z,696.00
2023-02-09T12:38:38.399Z,693.00
2023-02-09T12:39:38.442Z,678.00
2023-02-09T12:40:38.524Z,672.00
2023-02-09T12:41:41.049Z,671.00
2023-02-09T12:42:38.758Z,668.00
2023-02-09T12:43:38.833Z,669.00
2023-02-09T12:44:38.865Z,669.00
2023-02-09T12:45:38.941Z,668.00
2023-02-09T12:46:39.019Z,665.00
2023-02-09T12:47:38.994Z,662.00
2023-02-09T12:48:39.064Z,660.00
2023-02-09T12:49:39.119Z,660.00
2023-02-09T12:50:39.172Z,660.00
2023-02-09T12:51:39.201Z,658.00
2023-02-09T12:52:39.233Z,655.00
2023-02-09T12:53:39.248Z,655.00
2023-02-09T12:54:39.327Z,652.00
2023-02-09T12:55:39.359Z,651.00
2023-02-09T12:56:39.418Z,649.00
2023-02-09T12:57:39.429Z,645.00
2023-02-09T12:58:39.423Z,644.00
2023-02-09T12:59:39.486Z,643.00
2023-02-09T13:00:39.541Z,641.00
2023-02-09T13:01:39.582Z,636.00
2023-02-09T13:02:39.591Z,636.00
2023-02-09T13:03:39.654Z,634.00
2023-02-09T13:04:39.648Z,633.00
2023-02-09T13:05:39.746Z,628.00
2023-02-09T13:06:39.719Z,626.00
2023-02-09T13:07:39.765Z,625.00
2023-02-09T13:08:39.786Z,624.00
2023-02-09T13:09:39.852Z,622.00
2023-02-09T13:10:39.889Z,618.00
2023-02-09T13:11:39.933Z,617.00
2023-02-09T13:12:39.938Z,615.00
2023-02-09T13:13:39.989Z,614.00
2023-02-09T13:14:40.038Z,614.00
2023-02-09T13:15:40.061Z,612.00
2023-02-09T13:16:40.106Z,610.00
2023-02-09T13:17:40.120Z,606.00
2023-02-09T13:18:40.197Z,603.00
2023-02-09T13:19:47.670Z,605.00
2023-02-09T13:20:41.230Z,662.00
2023-02-09T13:21:40.221Z,649.00
2023-02-09T13:22:40.224Z,636.00
2023-02-09T13:23:40.211Z,630.00
2023-02-09T13:24:40.218Z,625.00
2023-02-09T13:25:40.244Z,624.00
2023-02-09T13:26:40.301Z,622.00
2023-02-09T13:27:40.267Z,624.00
2023-02-09T13:28:40.280Z,630.00
2023-02-09T13:29:40.281Z,634.00
2023-02-09T13:30:40.297Z,633.00
2023-02-09T13:31:40.354Z,638.00
2023-02-09T13:32:40.295Z,644.00
2023-02-09T13:33:40.292Z,647.00
2023-02-09T13:34:40.309Z,645.00
2023-02-09T13:35:40.311Z,640.00
2023-02-09T13:36:40.405Z,637.00
2023-02-09T13:37:40.310Z,634.00
2023-02-09T13:38:40.337Z,629.00
2023-02-09T13:39:40.345Z,624.00
2023-02-09T13:40:41.319Z,618.00
2023-02-09T13:41:40.329Z,617.00
2023-02-09T13:42:40.380Z,614.00
2023-02-09T13:43:40.546Z,615.00
2023-02-09T13:44:40.480Z,615.00
2023-02-09T13:45:40.523Z,611.00
2023-02-09T13:46:40.527Z,607.00
2023-02-09T13:47:40.556Z,599.00
2023-02-09T13:48:40.600Z,597.00
2023-02-09T13:49:40.621Z,596.00
2023-02-09T13:50:40.698Z,593.00
2023-02-09T13:51:40.720Z,589.00
2023-02-09T13:52:40.748Z,585.00
2023-02-09T13:53:40.777Z,587.00
2023-02-09T13:54:40.800Z,586.00
2023-02-09T13:55:40.883Z,582.00
2023-02-09T13:56:40.861Z,582.00
2023-02-09T13:57:40.856Z,580.00
2023-02-09T13:58:40.906Z,576.00
2023-02-09T13:59:40.947Z,568.00
2023-02-09T14:00:41.029Z,563.00
2023-02-09T14:01:41.074Z,564.00
2023-02-09T14:02:41.131Z,566.00
2023-02-09T14:03:56.687Z,565.00
2023-02-09T14:04:42.099Z,567.00
2023-02-09T14:05:41.096Z,566.00
2023-02-09T14:06:41.074Z,568.00
2023-02-09T14:07:41.109Z,566.00
2023-02-09T14:08:41.111Z,562.00
2023-02-09T14:24:41.185Z,532.00
2023-02-09T14:25:41.268Z,531.00
2023-02-09T14:26:41.269Z,531.00
2023-02-09T14:27:41.345Z,532.00
2023-02-09T14:28:41.345Z,538.00
2023-02-09T14:29:41.389Z,541.00
2023-02-09T14:30:41.522Z,540.00
2023-02-09T14:31:41.452Z,536.00
2023-02-09T14:32:41.549Z,533.00
2023-02-09T14:33:41.614Z,531.00
2023-02-09T14:34:41.595Z,531.00
2023-02-09T14:35:41.648Z,526.00
2023-02-09T14:36:41.712Z,522.00
2023-02-09T14:37:41.760Z,524.00
2023-02-09T14:38:41.824Z,522.00
2023-02-09T14:39:43.097Z,521.00
2023-02-09T14:40:41.876Z,525.00
2023-02-09T14:41:41.902Z,523.00
2023-02-09T14:42:41.983Z,525.00
2023-02-09T14:43:41.988Z,525.00
2023-02-09T14:44:42.027Z,526.00
2023-02-09T14:45:42.115Z,524.00
2023-02-09T14:46:44.296Z,524.00
2023-02-09T14:47:42.120Z,521.00
2023-02-09T14:48:42.132Z,518.00
2023-02-09T14:49:42.136Z,516.00
2023-02-09T14:50:42.099Z,518.00
2023-02-09T14:51:42.125Z,516.00
2023-02-09T14:52:46.685Z,519.00
2023-02-09T14:53:42.170Z,516.00
2023-02-09T14:54:42.120Z,512.00
2023-02-09T14:55:42.126Z,511.00
2023-02-09T14:56:42.134Z,513.00
2023-02-09T14:57:42.155Z,513.00
2023-02-09T14:58:42.147Z,514.00
2023-02-09T14:59:42.178Z,514.00
2023-02-09T15:00:42.141Z,511.00
2023-02-09T15:01:42.269Z,508.00
2023-02-09T15:02:42.276Z,506.00
2023-02-09T15:03:42.194Z,506.00
2023-02-09T15:04:42.203Z,504.00
2023-02-09T15:05:42.211Z,503.00
2023-02-09T15:06:42.181Z,503.00
2023-02-09T15:07:42.218Z,504.00
2023-02-09T15:08:42.229Z,506.00
2023-02-09T15:09:42.223Z,508.00
2023-02-09T15:10:42.235Z,508.00
2023-02-09T15:11:43.031Z,507.00
2023-02-09T15:12:42.267Z,508.00
2023-02-09T15:13:42.310Z,507.00
2023-02-09T15:14:42.389Z,508.00
2023-02-09T15:15:42.473Z,507.00
2023-02-09T15:16:42.508Z,506.00
2023-02-09T15:17:42.539Z,507.00
2023-02-09T15:18:42.562Z,508.00
2023-02-09T15:19:42.609Z,508.00
2023-02-09T15:20:42.667Z,507.00
2023-02-09T15:21:42.658Z,505.00
2023-02-09T15:22:42.774Z,505.00
2023-02-09T15:23:42.764Z,504.00
2023-02-09T15:24:42.822Z,502.00
2023-02-09T15:25:42.972Z,506.00
2023-02-09T15:26:42.905Z,504.00
2023-02-09T15:27:42.933Z,502.00
2023-02-09T15:28:42.979Z,500.00
2023-02-09T15:29:43.034Z,497.00
2023-02-09T15:30:43.086Z,500.00
2023-02-09T15:31:43.238Z,498.00
2023-02-09T15:32:43.144Z,496.00
2023-02-09T15:33:43.196Z,498.00
2023-02-09T15:34:43.225Z,499.00
2023-02-09T15:35:43.293Z,500.00
2023-02-09T15:36:43.334Z,501.00
2023-02-09T15:37:43.368Z,500.00
2023-02-09T15:38:43.440Z,497.00
2023-02-09T15:39:43.459Z,496.00
2023-02-09T15:40:43.644Z,497.00
2023-02-09T15:41:43.555Z,501.00
2023-02-09T15:42:43.640Z,500.00
2023-02-09T15:43:43.638Z,500.00
2023-02-09T15:44:43.663Z,498.00
2023-02-09T15:45:43.712Z,498.00
2023-02-09T15:46:43.782Z,498.00
2023-02-09T15:47:43.772Z,503.00
2023-02-09T15:48:43.830Z,505.00
2023-02-09T15:49:43.849Z,507.00
2023-02-09T15:50:44.191Z,507.00
2023-02-09T15:51:43.971Z,508.00
2023-02-09T15:52:44.247Z,507.00
2023-02-09T15:53:44.029Z,507.00
2023-02-09T15:54:44.041Z,506.00
2023-02-09T15:55:44.125Z,503.00
2023-02-09T15:56:44.134Z,502.00
2023-02-09T15:57:44.209Z,500.00
2023-02-09T15:58:44.236Z,505.00
2023-02-09T15:59:44.270Z,506.00
2023-02-09T16:00:44.613Z,506.00
2023-02-09T16:01:44.415Z,522.00
2023-02-09T16:02:44.359Z,527.00
2023-02-09T16:03:44.361Z,524.00
2023-02-09T16:04:44.364Z,520.00
2023-02-09T16:05:44.409Z,517.00
2023-02-09T16:06:44.391Z,514.00
2023-02-09T16:07:44.416Z,510.00
2023-02-09T16:08:44.431Z,510.00
2023-02-09T16:09:44.413Z,510.00
2023-02-09T16:10:44.842Z,509.00
2023-02-09T16:11:44.498Z,509.00
2023-02-09T16:12:44.505Z,508.00
2023-02-09T16:13:44.592Z,507.00
2023-02-09T16:14:44.560Z,505.00
2023-02-09T16:15:44.650Z,505.00
2023-02-09T16:16:44.770Z,503.00
2023-02-09T16:17:44.654Z,504.00
2023-02-09T16:18:44.695Z,504.00
2023-02-09T16:19:44.726Z,507.00
2023-02-09T16:20:44.997Z,509.00
2023-02-09T16:21:44.775Z,511.00
2023-02-09T16:22:44.827Z,511.00
2023-02-09T16:23:44.825Z,509.00
2023-02-09T16:24:44.830Z,508.00
2023-02-09T16:25:44.840Z,507.00
2023-02-09T16:26:44.904Z,507.00
2023-02-09T16:27:44.913Z,502.00
2023-02-09T16:28:44.974Z,502.00
2023-02-09T16:29:44.977Z,506.00
2023-02-09T16:30:45.343Z,507.00
2023-02-09T16:31:45.101Z,508.00
2023-02-09T16:32:45.073Z,507.00
2023-02-09T16:33:45.085Z,505.00
2023-02-09T16:34:45.140Z,506.00
2023-02-09T16:35:45.558Z,506.00
2023-02-09T16:36:47.652Z,505.00
2023-02-09T16:37:46.740Z,505.00
2023-02-09T16:38:45.131Z,501.00
2023-02-09T16:39:45.174Z,498.00
2023-02-09T16:40:45.177Z,498.00
2023-02-09T16:41:45.169Z,498.00
2023-02-09T16:42:47.163Z,497.00
2023-02-09T16:43:45.168Z,495.00
2023-02-09T16:44:45.177Z,496.00
2023-02-09T16:46:01.170Z,495.00
2023-02-09T16:46:46.189Z,494.00
2023-02-09T16:47:45.146Z,493.00
2023-02-09T16:48:45.153Z,492.00
2023-02-09T16:49:45.185Z,493.00
2023-02-09T16:50:45.413Z,494.00
2023-02-09T16:51:45.178Z,491.00
2023-02-09T16:52:45.174Z,491.00
2023-02-09T16:53:45.195Z,490.00
2023-02-09T16:54:45.206Z,490.00
2023-02-09T16:55:47.955Z,492.00
2023-02-09T16:56:53.943Z,491.00
2023-02-09T16:57:46.192Z,493.00
2023-02-09T16:58:45.205Z,494.00
2023-02-09T16:59:45.154Z,498.00
2023-02-09T17:00:45.226Z,503.00
2023-02-09T17:01:46.972Z,503.00
2023-02-09T17:02:45.771Z,502.00
2023-02-09T17:03:45.207Z,501.00
2023-02-09T17:04:45.221Z,499.00
2023-02-09T17:05:45.467Z,498.00
2023-02-09T17:06:45.237Z,498.00
2023-02-09T17:07:54.093Z,496.00
2023-02-09T17:08:46.231Z,494.00
2023-02-09T17:09:45.182Z,495.00
2023-02-09T17:10:45.218Z,495.00
2023-02-09T17:11:45.210Z,495.00
2023-02-09T17:12:45.198Z,494.00
2023-02-09T17:13:45.154Z,492.00
2023-02-09T17:14:45.183Z,492.00
2023-02-09T17:15:45.564Z,493.00
2023-02-09T17:16:45.209Z,493.00
2023-02-09T17:17:45.182Z,492.00
2023-02-09T17:18:45.203Z,490.00
2023-02-09T17:19:47.968Z,489.00
2023-02-09T17:20:45.280Z,491.00
2023-02-09T17:21:45.187Z,491.00
2023-02-09T17:22:45.166Z,492.00
2023-02-09T17:23:45.190Z,491.00
2023-02-09T17:24:45.196Z,491.00
2023-02-09T17:25:45.559Z,492.00
2023-02-09T17:26:45.202Z,492.00
2023-02-09T17:27:45.219Z,493.00
2023-02-09T17:28:45.182Z,492.00
2023-02-09T17:29:45.182Z,492.00
2023-02-09T17:30:45.189Z,493.00
2023-02-09T17:31:53.276Z,492.00
2023-02-09T17:32:46.188Z,493.00
2023-02-09T17:33:45.190Z,494.00
2023-02-09T17:34:45.210Z,493.00
2023-02-09T17:36:17.729Z,494.00
2023-02-09T17:36:46.207Z,492.00
2023-02-09T17:37:45.184Z,490.00
2023-02-09T17:38:45.186Z,490.00